Time;durP1;ratioP1;P1;durP2;ratioP2;P2;SDS_P1;SDS_P2;PMS_P1;PMS_P2;Temp;Humidity;BMP_temperature;BMP_pressure;BME280_temperature;BME280_humidity;BME280_pressure;Samples;Min_cycle;Max_cycle;Signal;HPM_P1;HPM_P2
2022/02/10 00:20:49;;;;;;;3.50;2.07;;;0.00;99.90;;;;;;5042323;28;20249;-79
2022/02/10 00:36:29;;;;;;;3.30;2.30;;;0.00;99.90;;;;;;5037360;28;20166;-78
2022/02/10 00:39:11;;;;;;;2.07;1.70;;;0.20;99.90;;;;;;5036371;28;20242;-77
2022/02/10 00:41:37;;;;;;;4.07;1.63;;;0.00;99.90;;;;;;5036998;28;20186;-77
2022/02/10 00:44:03;;;;;;;2.60;1.97;;;;;;;;;;5038484;28;20259;-77
2022/02/10 00:46:29;;;;;;;4.17;2.40;;;;;;;;;;5038564;28;20185;-77
2022/02/10 00:48:55;;;;;;;3.23;1.70;;;0.60;99.90;;;;;;5038476;28;20567;-78
2022/02/10 00:51:21;;;;;;;3.53;2.27;;;;;;;;;;5038397;28;20183;-77
2022/02/10 00:53:47;;;;;;;10.20;5.50;;;0.60;99.90;;;;;;5036769;28;20202;-79
2022/02/10 00:56:14;;;;;;;20.17;10.17;;;;;;;;;;5042800;28;20171;-79
2022/02/10 00:58:44;;;;;;;3.63;2.67;;;;;;;;;;5038377;28;20233;-79
2022/02/10 01:12:30;;;;;;;3.53;2.20;;;0.80;99.90;;;;;;5045453;28;20264;-79
2022/02/10 01:31:15;;;;;;;3.33;1.90;;;;;;;;;;5044019;28;20198;-79
2022/02/10 01:33:42;;;;;;;2.50;1.93;;;;;;;;;;5044150;28;20485;-79
2022/02/10 01:36:09;;;;;;;5.27;2.10;;;;;;;;;;5041794;28;20202;-78
2022/02/10 01:38:35;;;;;;;2.23;1.50;;;;;;;;;;5042618;28;20428;-78
2022/02/10 02:05:40;;;;;;;2.50;1.40;;;1.90;99.90;;;;;;5045640;28;20194;-79
2022/02/10 02:08:08;;;;;;;1.67;1.30;;;;;;;;;;5042254;28;20289;-80
2022/02/10 02:10:34;;;;;;;2.03;1.53;;;2.70;99.90;;;;;;5041693;28;20179;-79
2022/02/10 02:13:01;;;;;;;4.23;1.70;;;2.60;99.90;;;;;;5041644;28;20225;-80
2022/02/10 02:15:27;;;;;;;3.30;1.63;;;2.50;99.90;;;;;;5041661;28;20186;-79
2022/02/10 02:17:52;;;;;;;2.70;1.77;;;2.50;99.90;;;;;;5040714;28;20195;-79
2022/02/10 02:20:18;;;;;;;3.63;1.80;;;2.40;99.90;;;;;;5042536;28;20578;-79
2022/02/10 02:22:44;;;;;;;5.80;1.50;;;2.30;99.90;;;;;;5042209;28;20180;-79
2022/02/10 02:25:10;;;;;;;1.90;1.53;;;;;;;;;;5043203;28;20176;-79
2022/02/10 02:27:52;;;;;;;2.17;1.60;;;2.20;99.90;;;;;;5041170;28;20261;-79
2022/02/10 02:30:26;;;;;;;2.40;1.57;;;2.20;99.90;;;;;;5041683;28;20645;-79
2022/02/10 02:33:41;;;;;;;2.47;1.53;;;;;;;;;;5041577;28;20318;-79
2022/02/10 03:08:15;;;;;;;3.10;2.00;;;;;;;;;;5030881;28;20435;-79
2022/02/10 03:10:59;;;;;;;2.80;1.73;;;1.50;99.90;;;;;;5042104;28;20388;-79
2022/02/10 03:13:31;;;;;;;2.33;2.00;;;;;;;;;;5041240;28;20846;-79
2022/02/10 04:06:10;;;;;;;2.40;1.93;;;2.70;99.90;;;;;;5037429;28;20497;-79
2022/02/10 04:08:00;;;;;;;3.17;1.93;;;2.30;99.90;;;;;;5036879;28;20417;-79
2022/02/10 04:11:21;;;;;;;2.53;1.73;;;2.20;99.90;;;;;;5046418;28;20429;-79
2022/02/10 04:13:34;;;;;;;6.00;1.73;;;;;;;;;;5034854;28;20456;-79
2022/02/10 04:16:25;;;;;;;1.83;1.37;;;1.70;99.90;;;;;;5038980;28;20417;-79
2022/02/10 04:24:04;;;;;;;2.10;1.67;;;3.00;99.90;;;;;;5041492;28;20417;-79
2022/02/10 04:54:15;;;;;;;1.47;1.20;;;0.80;99.90;;;;;;5036591;28;20439;-77
2022/02/10 04:56:49;;;;;;;2.17;1.27;;;;;;;;;;5035056;28;20450;-77
2022/02/10 05:04:53;;;;;;;3.33;1.40;;;;;;;;;;5034781;28;21008;-77
2022/02/10 05:18:39;;;;;;;2.63;2.10;;;;;;;;;;5030107;28;20198;-80
2022/02/10 05:35:19;;;;;;;2.77;1.63;;;;;;;;;;5040790;28;20913;-79
2022/02/10 05:37:33;;;;;;;2.97;1.83;;;0.40;99.90;;;;;;5040429;28;20405;-80
2022/02/10 05:40:04;;;;;;;6.70;1.90;;;;;;;;;;5038921;28;20767;-80
2022/02/10 05:45:15;;;;;;;2.87;1.93;;;;;;;;;;5041192;28;20420;-80
2022/02/10 05:48:03;;;;;;;2.03;1.63;;;;;;;;;;5039997;28;20155;-80
2022/02/10 05:53:48;;;;;;;2.57;1.47;;;0.60;99.90;;;;;;5043428;28;20459;-80
2022/02/10 07:02:46;;;;;;;6.33;2.17;;;5.10;99.70;;;;;;5041600;28;20193;-78
2022/02/10 07:10:11;;;;;;;3.20;2.03;;;5.20;99.90;;;;;;5042385;28;20210;-78
2022/02/10 07:15:44;;;;;;;4.20;2.13;;;5.50;99.20;;;;;;5037508;28;20408;-77
2022/02/10 07:47:01;;;;;;;3.70;2.23;;;6.20;98.20;;;;;;5041387;28;20200;-80
2022/02/10 07:51:14;;;;;;;3.57;1.67;;;6.30;98.00;;;;;;5040874;28;20193;-79
2022/02/10 08:05:03;;;;;;;3.37;1.93;;;7.20;96.30;;;;;;5037595;28;20211;-79
2022/02/10 09:04:04;;;;;;;3.73;1.93;;;11.10;83.10;;;;;;5037205;28;20227;-79
2022/02/10 09:15:00;;;;;;;3.23;1.80;;;11.20;83.60;;;;;;5039375;28;20194;-78
2022/02/10 09:47:42;;;;;;;4.10;2.00;;;12.40;81.50;;;;;;5043667;28;20239;-78
2022/02/10 09:55:55;;;;;;;5.17;1.70;;;12.20;81.70;;;;;;5043468;28;20272;-79
2022/02/10 10:00:55;;;;;;;3.43;1.70;;;12.30;80.80;;;;;;5040244;28;20179;-78
2022/02/10 10:03:32;;;;;;;2.67;1.60;;;12.40;80.70;;;;;;5039938;28;20168;-78
2022/02/10 10:06:12;;;;;;;4.67;1.77;;;12.60;80.40;;;;;;5039995;28;20185;-78
2022/02/10 10:08:59;;;;;;;5.57;2.20;;;13.30;79.60;;;;;;5038789;28;20198;-78
2022/02/10 10:17:40;;;;;;;2.30;1.60;;;13.10;74.30;;;;;;5046147;28;20309;-78
2022/02/10 10:20:40;;;;;;;2.47;1.57;;;12.80;75.10;;;;;;5040237;28;20173;-78
2022/02/10 10:24:02;;;;;;;5.47;1.70;;;13.20;72.80;;;;;;5040603;28;20155;-78
2022/02/10 10:26:17;;;;;;;5.83;2.23;;;12.80;73.30;;;;;;5042330;28;20242;-79
2022/02/10 10:49:08;;;;;;;4.13;1.83;;;13.30;70.30;;;;;;5040366;28;20205;-78
2022/02/10 10:51:24;;;;;;;3.20;1.70;;;12.90;69.30;;;;;;5040135;28;20169;-79
2022/02/10 10:56:26;;;;;;;2.20;1.73;;;13.70;68.10;;;;;;5040713;28;20170;-78
2022/02/10 11:43:53;;;;;;;4.43;2.43;;;12.30;74.00;;;;;;5043036;28;20326;-78
2022/02/10 12:38:31;;;;;;;7.60;3.20;;;14.80;71.80;;;;;;5034475;28;20168;-78
2022/02/10 14:09:50;;;;;;;6.37;2.67;;;10.90;83.70;;;;;;5040064;28;20552;-79
2022/02/10 14:18:05;;;;;;;5.90;2.70;;;11.80;80.00;;;;;;5039049;28;20273;-79
2022/02/10 14:20:55;;;;;;;4.93;2.27;;;11.80;80.50;;;;;;5038883;28;20182;-78
2022/02/10 14:28:34;;;;;;;3.70;2.47;;;11.90;80.10;;;;;;5041095;28;20220;-79
2022/02/10 14:31:04;;;;;;;4.83;2.70;;;11.70;80.90;;;;;;5040164;28;20197;-79
2022/02/10 14:33:33;;;;;;;5.57;2.33;;;11.40;80.30;;;;;;5039569;28;20206;-79
2022/02/10 14:36:12;;;;;;;3.53;2.40;;;11.30;82.40;;;;;;5039707;28;20209;-79
2022/02/10 15:29:08;;;;;;;15.93;7.70;;;;;;;;;;5038081;28;20166;-79
2022/02/10 16:18:13;;;;;;;9.13;5.37;;;8.80;92.10;;;;;;5037312;28;20610;-79
2022/02/10 16:20:46;;;;;;;12.23;5.67;;;8.80;92.10;;;;;;5037714;28;20169;-78
2022/02/10 16:23:16;;;;;;;13.63;8.37;;;8.80;92.60;;;;;;5036428;28;20641;-78
2022/02/10 16:25:48;;;;;;;11.80;6.83;;;8.70;92.90;;;;;;5035002;28;20184;-78
2022/02/10 16:28:34;;;;;;;9.10;5.87;;;8.60;93.00;;;;;;5036078;28;20215;-78
2022/02/10 16:31:00;;;;;;;7.87;4.87;;;8.60;93.40;;;;;;5036102;28;20187;-78
2022/02/10 16:33:26;;;;;;;12.27;9.00;;;8.50;93.70;;;;;;5035712;28;20294;-80
2022/02/10 16:35:51;;;;;;;12.37;6.30;;;8.50;93.80;;;;;;5043880;28;20188;-78
2022/02/10 16:38:17;;;;;;;9.47;5.00;;;8.40;94.10;;;;;;5041130;28;20198;-78
2022/02/10 16:40:43;;;;;;;11.93;7.53;;;8.40;94.20;;;;;;5040681;28;20184;-78
2022/02/10 16:43:09;;;;;;;10.60;6.70;;;8.40;94.50;;;;;;5039415;28;20612;-78
2022/02/10 16:45:35;;;;;;;8.47;4.33;;;8.30;94.90;;;;;;5040644;28;20187;-78
2022/02/10 16:48:01;;;;;;;12.83;7.23;;;8.20;95.00;;;;;;5037504;28;20211;-78
2022/02/10 16:50:27;;;;;;;18.97;10.30;;;8.20;95.40;;;;;;5038740;28;20626;-78
2022/02/10 16:53:05;;;;;;;9.17;5.50;;;8.10;95.70;;;;;;5036660;28;20224;-77
2022/02/10 17:05:30;;;;;;;11.57;6.10;;;7.70;97.70;;;;;;5036739;28;20247;-79
2022/02/10 17:19:03;;;;;;;7.40;5.43;;;7.40;99.90;;;;;;5036434;28;20223;-79
2022/02/10 17:25:10;;;;;;;10.57;5.00;;;7.40;99.90;;;;;;5034419;28;20180;-79
2022/02/10 17:27:09;;;;;;;7.53;5.10;;;7.30;99.90;;;;;;5036366;28;20197;-79
2022/02/10 17:32:25;;;;;;;11.57;6.13;;;7.30;99.90;;;;;;5037394;28;20277;-78
2022/02/10 17:51:56;;;;;;;93.30;39.83;;;7.10;99.90;;;;;;5043695;28;20182;-78
2022/02/10 17:54:23;;;;;;;12.87;7.30;;;7.10;99.90;;;;;;5042663;28;20611;-78
2022/02/10 17:56:49;;;;;;;11.80;7.57;;;7.10;99.90;;;;;;5044626;28;20647;-79
2022/02/10 17:59:16;;;;;;;13.37;7.03;;;7.10;99.90;;;;;;5044718;28;20272;-78
2022/02/10 18:01:45;;;;;;;9.50;6.17;;;7.10;99.90;;;;;;5044061;28;20183;-79
2022/02/10 18:04:11;;;;;;;11.07;7.30;;;6.90;99.90;;;;;;5044263;28;20176;-79
2022/02/10 18:06:42;;;;;;;14.73;7.60;;;6.80;99.90;;;;;;5043999;28;20171;-79
2022/02/10 18:17:06;;;;;;;18.97;10.00;;;6.20;99.90;;;;;;5045229;28;20186;-79
2022/02/10 18:19:37;;;;;;;23.30;12.37;;;6.00;99.90;;;;;;5043024;28;20248;-79
2022/02/10 18:22:29;;;;;;;23.47;13.23;;;6.00;99.90;;;;;;5043084;28;20151;-79
2022/02/10 18:54:28;;;;;;;19.83;11.03;;;5.40;99.90;;;;;;5041149;28;20285;-78
2022/02/10 19:10:46;;;;;;;16.33;10.43;;;5.70;99.90;;;;;;5043758;28;20209;-79
2022/02/10 19:13:16;;;;;;;21.63;11.57;;;5.70;99.90;;;;;;5042688;28;20194;-79
2022/02/10 19:15:42;;;;;;;16.13;10.03;;;5.70;99.90;;;;;;5040613;28;20425;-79
2022/02/10 19:18:09;;;;;;;26.30;12.57;;;5.80;99.90;;;;;;5041459;28;20194;-79
2022/02/10 19:20:35;;;;;;;20.90;13.23;;;5.80;99.90;;;;;;5041337;28;20198;-79
2022/02/10 19:23:03;;;;;;;20.60;15.27;;;5.80;99.90;;;;;;5043666;28;20185;-79
2022/02/10 19:25:33;;;;;;;74.70;34.97;;;5.80;99.90;;;;;;5042710;28;20692;-79
2022/02/10 19:27:59;;;;;;;29.17;13.37;;;5.90;99.90;;;;;;5040777;28;20294;-80
2022/02/10 19:30:26;;;;;;;15.70;10.20;;;5.90;99.90;;;;;;5042414;28;20210;-79
2022/02/10 19:32:56;;;;;;;13.93;7.70;;;6.00;99.90;;;;;;5041219;28;20571;-79
2022/02/10 19:35:24;;;;;;;10.97;6.80;;;6.10;99.90;;;;;;5040730;28;20184;-79
2022/02/10 19:37:56;;;;;;;12.13;7.03;;;6.30;99.90;;;;;;5041742;28;20436;-79
2022/02/10 19:40:26;;;;;;;11.63;6.97;;;6.30;99.90;;;;;;5040873;28;20206;-79
2022/02/10 19:42:54;;;;;;;7.83;5.10;;;6.40;99.90;;;;;;5041117;28;20178;-79
2022/02/10 19:45:20;;;;;;;10.63;6.90;;;6.50;99.90;;;;;;5041796;28;20241;-79
2022/02/10 19:47:45;;;;;;;8.07;5.70;;;6.30;99.90;;;;;;5041676;28;20201;-79
2022/02/10 19:50:16;;;;;;;8.40;4.53;;;6.50;99.90;;;;;;5040770;28;20182;-79
2022/02/10 19:52:47;;;;;;;8.50;5.27;;;6.60;99.90;;;;;;5040045;28;20164;-79
2022/02/10 19:55:19;;;;;;;11.10;5.20;;;6.60;99.90;;;;;;5046048;28;20189;-79
2022/02/10 19:57:46;;;;;;;12.57;6.13;;;6.60;99.90;;;;;;5051027;28;20160;-79
2022/02/10 20:00:18;;;;;;;13.60;8.17;;;6.60;99.90;;;;;;5054665;28;20170;-79
2022/02/10 20:02:44;;;;;;;10.27;5.60;;;6.50;99.90;;;;;;5057632;28;20167;-79
2022/02/10 20:05:10;;;;;;;13.73;6.03;;;6.60;99.90;;;;;;5040355;28;20231;-79
2022/02/10 20:07:37;;;;;;;10.70;5.80;;;;;;;;;;5042614;28;20169;-79
2022/02/10 20:10:05;;;;;;;10.17;5.37;;;6.60;99.90;;;;;;5059182;28;20219;-79
2022/02/10 20:12:30;;;;;;;10.40;5.13;;;6.60;99.90;;;;;;5055199;28;20541;-79
2022/02/10 20:14:56;;;;;;;11.07;6.23;;;6.60;99.90;;;;;;5046939;28;20178;-79
2022/02/10 20:17:22;;;;;;;12.90;5.83;;;6.50;99.90;;;;;;5053244;28;20179;-79
2022/02/10 20:19:47;;;;;;;9.37;5.03;;;6.50;99.90;;;;;;5053891;28;20233;-79
2022/02/10 20:22:14;;;;;;;12.20;6.07;;;6.30;99.90;;;;;;5045867;28;20285;-79
2022/02/10 20:24:41;;;;;;;12.17;6.10;;;6.50;99.90;;;;;;5046715;28;20249;-79
2022/02/10 20:27:07;;;;;;;13.57;7.70;;;6.40;99.90;;;;;;5042411;28;20182;-79
2022/02/10 20:29:34;;;;;;;12.17;6.30;;;6.40;99.90;;;;;;5050150;28;20205;-79
2022/02/10 20:32:00;;;;;;;11.70;5.33;;;6.40;99.90;;;;;;5052379;28;20193;-79
2022/02/10 20:34:28;;;;;;;8.97;5.03;;;6.40;99.90;;;;;;5052608;28;20216;-79
2022/02/10 20:36:56;;;;;;;14.43;9.17;;;6.40;99.90;;;;;;5056094;28;20174;-79
2022/02/10 20:39:26;;;;;;;9.30;6.00;;;6.40;99.90;;;;;;5060532;28;20215;-79
2022/02/10 20:41:54;;;;;;;12.63;6.07;;;6.40;99.90;;;;;;5060697;28;20172;-79
2022/02/10 20:44:21;;;;;;;10.80;5.00;;;6.30;99.90;;;;;;5057334;28;20200;-79
2022/02/10 20:46:51;;;;;;;7.90;5.47;;;6.30;99.90;;;;;;5040127;28;20277;-79
2022/02/10 20:49:18;;;;;;;9.43;5.27;;;6.30;99.90;;;;;;5054252;28;20285;-79
2022/02/10 20:51:45;;;;;;;6.77;4.77;;;6.30;99.90;;;;;;5054627;28;20264;-79
2022/02/10 20:54:13;;;;;;;9.30;5.30;;;6.30;99.90;;;;;;5038488;28;20212;-78
2022/02/10 20:56:38;;;;;;;11.83;4.83;;;6.10;99.90;;;;;;5038456;28;20649;-78
2022/02/10 20:59:18;;;;;;;11.33;4.63;;;6.40;99.90;;;;;;5038297;28;20226;-79
2022/02/10 21:01:45;;;;;;;9.13;4.53;;;6.40;99.90;;;;;;5041424;28;20174;-78
2022/02/10 21:04:11;;;;;;;10.80;4.80;;;6.50;99.90;;;;;;5057586;28;20202;-79
2022/02/10 21:09:17;;;;;;;13.37;5.53;;;6.00;99.90;;;;;;5043337;28;20203;-79
2022/02/10 21:11:42;;;;;;;9.13;5.53;;;6.10;99.90;;;;;;5037376;28;20171;-78
2022/02/10 21:14:15;;;;;;;8.90;5.60;;;6.20;99.90;;;;;;5038754;28;20273;-79
2022/02/10 21:16:42;;;;;;;12.93;5.17;;;6.00;99.90;;;;;;5050004;28;20162;-78
2022/02/10 21:19:11;;;;;;;6.37;4.53;;;6.20;99.90;;;;;;5058452;28;20198;-78
2022/02/10 21:21:37;;;;;;;9.17;5.27;;;5.90;99.90;;;;;;5041348;28;20181;-78
2022/02/10 21:24:09;;;;;;;9.00;4.80;;;6.30;99.90;;;;;;5053345;28;20213;-79
2022/02/10 21:26:46;;;;;;;7.17;5.00;;;6.10;99.90;;;;;;5053475;28;20263;-79
2022/02/10 21:29:12;;;;;;;8.33;5.00;;;6.10;99.90;;;;;;5062673;28;20243;-79
2022/02/10 21:31:44;;;;;;;12.27;5.27;;;;;;;;;;5042997;28;20203;-79
2022/02/10 21:36:48;;;;;;;10.40;6.50;;;6.00;99.90;;;;;;5041362;28;20200;-79
2022/02/10 21:42:51;;;;;;;11.73;4.83;;;;;;;;;;5062177;28;20266;-79
2022/02/10 22:18:59;;;;;;;10.67;4.67;;;6.10;99.90;;;;;;5054199;28;20191;-79
2022/02/10 22:21:33;;;;;;;11.70;5.17;;;6.00;99.90;;;;;;5042935;28;20174;-79
2022/02/10 22:24:02;;;;;;;12.33;4.93;;;;;;;;;;5041662;28;20406;-79
2022/02/10 22:26:31;;;;;;;7.80;4.60;;;6.00;99.90;;;;;;5042799;28;20171;-79
2022/02/10 22:36:40;;;;;;;9.53;5.60;;;;;;;;;;5042940;28;20614;-79
2022/02/10 22:39:06;;;;;;;9.63;5.00;;;6.10;99.90;;;;;;5042259;28;20198;-79
2022/02/10 22:41:32;;;;;;;8.90;5.10;;;5.90;99.90;;;;;;5041371;28;20220;-79
2022/02/10 22:44:00;;;;;;;9.40;5.33;;;6.30;99.90;;;;;;5042234;28;20183;-79
2022/02/10 22:46:27;;;;;;;7.23;4.63;;;6.00;99.90;;;;;;5042461;28;20266;-79
2022/02/10 22:48:53;;;;;;;12.60;4.70;;;6.20;99.90;;;;;;5041873;28;20202;-79
2022/02/10 22:51:20;;;;;;;6.57;4.70;;;5.70;99.90;;;;;;5041868;28;20189;-79
2022/02/10 22:53:46;;;;;;;11.70;5.30;;;5.90;99.90;;;;;;5040238;28;20600;-78
2022/02/10 22:56:16;;;;;;;6.87;4.53;;;5.90;99.90;;;;;;5041155;28;20210;-79
2022/02/10 22:58:42;;;;;;;15.90;5.73;;;;;;;;;;5041831;28;20223;-79
2022/02/10 23:01:10;;;;;;;8.03;4.73;;;6.00;99.90;;;;;;5040201;28;20205;-79
2022/02/10 23:03:36;;;;;;;11.60;5.87;;;6.30;99.90;;;;;;5041507;28;20178;-79
2022/02/10 23:06:04;;;;;;;7.57;4.67;;;5.90;99.90;;;;;;5042014;28;20267;-79
2022/02/10 23:08:30;;;;;;;8.30;5.07;;;;;;;;;;5040348;28;20568;-79
2022/02/10 23:10:56;;;;;;;10.43;5.00;;;6.00;99.90;;;;;;5039421;28;20184;-79
2022/02/10 23:13:27;;;;;;;11.17;6.17;;;6.30;99.90;;;;;;5040762;28;20219;-79
2022/02/10 23:15:56;;;;;;;8.50;5.07;;;6.00;99.90;;;;;;5040629;28;20168;-79
2022/02/10 23:18:27;;;;;;;9.10;5.73;;;6.20;99.90;;;;;;5041156;28;20248;-79
2022/02/10 23:20:56;;;;;;;9.10;4.87;;;6.10;99.90;;;;;;5041582;28;20167;-79
2022/02/10 23:23:23;;;;;;;10.37;5.47;;;6.00;99.90;;;;;;5041227;28;20207;-79
2022/02/10 23:25:51;;;;;;;7.80;5.50;;;6.20;99.90;;;;;;5040295;28;20224;-79
2022/02/10 23:28:37;;;;;;;8.67;5.00;;;5.90;99.90;;;;;;5040188;28;20198;-79
2022/02/10 23:31:04;;;;;;;10.27;5.27;;;6.00;99.90;;;;;;5040402;28;20227;-79
2022/02/10 23:33:33;;;;;;;9.80;4.73;;;5.80;99.90;;;;;;5040330;28;20202;-79
2022/02/10 23:38:44;;;;;;;7.20;5.10;;;6.10;99.90;;;;;;5040119;28;20193;-79
2022/02/10 23:43:45;;;;;;;15.13;5.93;;;6.20;99.90;;;;;;5039954;28;20284;-79
2022/02/10 23:46:11;;;;;;;10.87;5.90;;;6.00;99.90;;;;;;5038063;28;20193;-79
2022/02/10 23:48:37;;;;;;;11.30;5.80;;;6.00;99.90;;;;;;5039994;28;20198;-79
2022/02/10 23:51:04;;;;;;;10.10;5.70;;;5.90;99.90;;;;;;5039877;28;20181;-79
2022/02/10 23:53:30;;;;;;;11.10;6.30;;;6.20;99.90;;;;;;5039180;28;20634;-79
2022/02/10 23:55:58;;;;;;;12.30;5.90;;;;;;;;;;5038985;28;20174;-79
